Detall de PIREP

Printer-friendly versionPDF version

[2012/04/11 08:31:00]
Flight IATA:CT1005
Pilot Number:011
Company ICAO:CAT
Aircraft Type:F28/A
PAX:85
Departing Airport: EKSB
Destination Airport: ESNZ
Alternate Airport:ESSA
Online: VATSIM
Route:ALS UM852 MEGEN UT405 GOKEP DCT OSLAV
Flight Level:F290
No Slew and time accel
No pause
Crash detect
Detect pilot in Cockpit between each 30 and 45 minutes
08:31 Zero fuel Weight: 56957 Lbs, Fuel Weight: 16000 Lbs
08:31 VATSIM:EKSB 110752Z 26003KT 9999 FEW007 07/06 Q0995
08:31 VATSIM:ESNZ 110750Z 20012KT CAVOK 05/M02 Q0991
08:39 Parking Brakes off
08:47 Take-off
08:47 Take off Weight: 72495 Lbs
08:47 Wind: 261º @ 003 Knots Heading: 140º
08:47 POS N54º 57´ 30´´ E009º 48´ 02´´
08:47 Flaps:3 at 146 Knots
08:47 Gear Up: 146 Knots
08:47 Flaps:2 at 153 Knots
08:47 Flaps:1 at 159 Knots
08:48 Flaps:0 at 167 Knots
09:02 Wind:302º@016 Knots Heading: 020º Ground Speed: 389 KnotsAltitude 27076 ft
09:02 TOC
09:02 Fuel Weight: 13360 Lb
09:55 TOD
09:55 Fuel Weight: 9505 Lb
10:14 Flaps:1 at 221 Knots
10:14 Flaps:2 at 196 Knots
10:15 Flaps:3 at 189 Knots
10:15 Flaps:4 at 166 Knots
10:15 Gear Down: 164 Knots
10:17 Wind:185º@007 Knots Heading: 132º Ground Speed: 155 Knots Altitude 3549 ft
10:17 Flaps:5 at 150 Knots
10:19 Gear Up: 100 Knots
10:27 Gear Down: 174 Knots
10:32 Wind:184º@007 Knots Heading: 116º Ground Speed: 135 Knots Altitude 2732 ft
10:33 TouchDown:Rate -153 ft/min Speed: 117 Knots
10:33 VATSIM:ESNZ 110950Z 21014KT CAVOK 06/M03 Q0992
10:33 Land
10:33 Wind:181º@007 Knots
10:33 Heading: 110º
10:33 Flight Duration: 01:46
10:33 Landing Weight: 63209 Lbs
10:33 POS N63º 11´ 42´´ E014º 29´ 50´´
10:42 Parking brakes on
10:42 Block to Block Duration: 02:03
10:42 Final Fuel: 5954 Lbls
10:42 Spent Fuel: 10046 Lbls
10:42 Flight Length: 109 NM
10:42 TOD Land Length: 17 NM

Exportar CSV

Powered by Drupal - Modified by Danger4k